Time;durP1;ratioP1;P1;durP2;ratioP2;P2;SDS_P1;SDS_P2;PMS_P1;PMS_P2;Temp;Humidity;BMP_temperature;BMP_pressure;BME280_temperature;BME280_humidity;BME280_pressure;Samples;Min_cycle;Max_cycle;Signal;HPM_P1;HPM_P2
2023/08/13 00:00:06;;;;;;;15.60;14.07;;;;;;;;;;10306031;28;20091;-66
2023/08/13 00:05:04;;;;;;;18.38;13.95;;;;;;;;;;10304146;28;20498;-65
2023/08/13 00:10:01;;;;;;;17.85;14.43;;;;;;;;;;10304641;28;20048;-66
2023/08/13 00:14:57;;;;;;;15.23;13.77;;;;;;;;;;10302807;28;20052;-66
2023/08/13 00:19:53;;;;;;;16.00;14.18;;;;;;;;;;10295677;28;20056;-68
2023/08/13 00:24:51;;;;;;;14.50;13.07;;;;;;;;;;10305772;28;20095;-66
2023/08/13 00:29:47;;;;;;;14.82;13.43;;;;;;;;;;10296727;28;20051;-67
2023/08/13 00:34:44;;;;;;;14.65;13.25;;;;;;;;;;10303552;28;20055;-65
2023/08/13 00:39:40;;;;;;;15.68;14.18;;;;;;;;;;10295532;28;20095;-65
2023/08/13 00:44:37;;;;;;;16.83;14.50;;;;;;;;;;10309010;28;20036;-65
2023/08/13 00:49:33;;;;;;;14.35;12.70;;;;;;;;;;10300462;28;20044;-65
2023/08/13 00:54:30;;;;;;;14.95;13.45;;;;;;;;;;10306491;28;20873;-65
2023/08/13 00:59:26;;;;;;;14.68;13.38;;;;;;;;;;10301848;28;20041;-65
2023/08/13 01:04:23;;;;;;;20.15;13.85;;;;;;;;;;10306752;28;20048;-65
2023/08/13 01:09:26;;;;;;;15.63;13.20;;;;;;;;;;10305745;28;20135;-65
2023/08/13 01:14:26;;;;;;;15.18;13.63;;;;;;;;;;10305368;28;20134;-65
2023/08/13 01:19:23;;;;;;;15.60;13.88;;;;;;;;;;10308557;28;20564;-65
2023/08/13 01:24:19;;;;;;;15.52;13.98;;;;;;;;;;10302089;28;20049;-64
2023/08/13 01:29:23;;;;;;;14.27;12.98;;;;;;;;;;10301956;28;20066;-65
2023/08/13 01:34:19;;;;;;;14.75;13.32;;;;;;;;;;10304670;28;20045;-65
2023/08/13 01:39:16;;;;;;;13.90;12.80;;;;;;;;;;10305630;28;20052;-65
2023/08/13 01:44:13;;;;;;;14.75;13.40;;;;;;;;;;10309004;28;20055;-66
2023/08/13 01:49:09;;;;;;;14.88;13.48;;;;;;;;;;10310785;28;20049;-66
2023/08/13 01:54:05;;;;;;;14.38;13.18;;;;;;;;;;10306823;28;20067;-66
2023/08/13 01:59:02;;;;;;;14.57;13.18;;;;;;;;;;10299507;28;20049;-66
2023/08/13 02:03:58;;;;;;;14.15;12.75;;;;;;;;;;10306728;28;20132;-66
2023/08/13 02:08:55;;;;;;;14.38;12.90;;;;;;;;;;10304789;28;20052;-66
2023/08/13 02:13:51;;;;;;;14.90;13.23;;;;;;;;;;10305438;28;20049;-65
2023/08/13 02:18:47;;;;;;;13.70;12.50;;;;;;;;;;10299689;28;20048;-66
2023/08/13 02:23:44;;;;;;;13.95;12.80;;;;;;;;;;10311965;28;20053;-65
2023/08/13 02:28:43;;;;;;;15.50;13.90;;;;;;;;;;10307499;28;20059;-65
2023/08/13 02:33:39;;;;;;;13.73;12.32;;;;;;;;;;10306699;28;20044;-65
2023/08/13 02:38:35;;;;;;;14.82;12.43;;;;;;;;;;10297376;28;20049;-65
2023/08/13 02:43:33;;;;;;;16.35;12.82;;;;;;;;;;10307941;28;20049;-66
2023/08/13 02:48:29;;;;;;;14.27;12.90;;;;;;;;;;10301286;28;20075;-66
2023/08/13 02:53:25;;;;;;;14.38;12.73;;;;;;;;;;10305622;28;20048;-66
2023/08/13 02:58:22;;;;;;;15.00;13.38;;;;;;;;;;10307368;28;20045;-65
2023/08/13 03:03:18;;;;;;;13.68;12.48;;;;;;;;;;10305898;28;20514;-65
2023/08/13 03:08:15;;;;;;;16.30;12.40;;;;;;;;;;10299107;28;20130;-66
2023/08/13 03:13:11;;;;;;;13.02;11.73;;;;;;;;;;10308226;28;20045;-66
2023/08/13 03:18:07;;;;;;;15.07;13.07;;;;;;;;;;10308877;28;20094;-66
2023/08/13 03:23:04;;;;;;;15.10;13.52;;;;;;;;;;10309703;28;20544;-67
2023/08/13 03:28:00;;;;;;;17.35;13.40;;;;;;;;;;10307090;28;20080;-66
2023/08/13 03:32:57;;;;;;;17.27;13.63;;;;;;;;;;10307290;28;20090;-66
2023/08/13 03:37:53;;;;;;;14.57;13.18;;;;;;;;;;10311487;28;20143;-66
2023/08/13 03:42:49;;;;;;;14.57;13.20;;;;;;;;;;10303498;28;20045;-65
2023/08/13 03:47:47;;;;;;;14.57;13.18;;;;;;;;;;10299061;28;20052;-66
2023/08/13 03:52:43;;;;;;;16.80;13.27;;;;;;;;;;10310459;28;20071;-66
2023/08/13 03:57:40;;;;;;;16.08;13.57;;;;;;;;;;10301209;28;20037;-67
2023/08/13 04:02:37;;;;;;;14.52;13.30;;;;;;;;;;10309779;28;20053;-66
2023/08/13 04:07:34;;;;;;;18.25;13.65;;;;;;;;;;10309171;28;20044;-65
2023/08/13 04:12:30;;;;;;;14.18;12.82;;;;;;;;;;10307453;28;20040;-65
2023/08/13 04:17:26;;;;;;;14.10;12.80;;;;;;;;;;10311149;28;20106;-66
2023/08/13 04:22:23;;;;;;;14.70;13.43;;;;;;;;;;10301105;28;20049;-65
2023/08/13 04:27:19;;;;;;;14.40;13.13;;;;;;;;;;10305562;28;20079;-65
2023/08/13 04:32:15;;;;;;;14.68;12.85;;;;;;;;;;10302602;28;20041;-65
2023/08/13 04:37:12;;;;;;;14.43;13.02;;;;;;;;;;10311764;28;20040;-66
2023/08/13 04:42:08;;;;;;;17.08;13.70;;;;;;;;;;10305052;28;20099;-66
2023/08/13 04:47:05;;;;;;;14.95;13.57;;;;;;;;;;10303983;28;20844;-66
2023/08/13 04:52:02;;;;;;;12.93;11.80;;;;;;;;;;10304766;28;20060;-65
2023/08/13 04:56:58;;;;;;;13.98;12.68;;;;;;;;;;10304307;28;20096;-65
2023/08/13 05:01:54;;;;;;;13.38;12.10;;;;;;;;;;10306145;28;20056;-66
2023/08/13 05:06:51;;;;;;;14.07;12.77;;;;;;;;;;10309341;28;20098;-66
2023/08/13 05:11:47;;;;;;;14.48;12.45;;;;;;;;;;10308055;28;20433;-66
2023/08/13 05:16:44;;;;;;;14.02;12.82;;;;;;;;;;10308383;28;20099;-67
2023/08/13 05:21:40;;;;;;;14.38;13.10;;;;;;;;;;10307178;28;20114;-66
2023/08/13 05:26:36;;;;;;;13.48;12.32;;;;;;;;;;10305070;28;20052;-67
2023/08/13 05:31:32;;;;;;;13.40;12.20;;;;;;;;;;10311752;28;20049;-66
2023/08/13 05:36:29;;;;;;;13.60;11.75;;;;;;;;;;10310971;28;20407;-67
2023/08/13 05:41:25;;;;;;;12.88;11.63;;;;;;;;;;10308389;28;20044;-66
2023/08/13 05:46:22;;;;;;;18.38;12.52;;;;;;;;;;10307591;28;20122;-67
2023/08/13 05:51:18;;;;;;;13.40;12.30;;;;;;;;;;10306810;28;20087;-65
2023/08/13 05:56:14;;;;;;;13.00;11.80;;;;;;;;;;10306791;28;20044;-66
2023/08/13 06:01:11;;;;;;;13.88;12.32;;;;;;;;;;10304313;28;20972;-67
2023/08/13 06:06:08;;;;;;;12.20;11.10;;;;;;;;;;10306502;28;20060;-67
2023/08/13 06:11:05;;;;;;;13.18;11.27;;;;;;;;;;10296438;28;20049;-67
2023/08/13 06:16:01;;;;;;;13.48;11.65;;;;;;;;;;10307202;28;20049;-67
2023/08/13 06:20:57;;;;;;;12.15;11.00;;;;;;;;;;10311683;28;20121;-66
2023/08/13 06:25:54;;;;;;;13.57;12.10;;;;;;;;;;10314094;28;20052;-67
2023/08/13 06:30:50;;;;;;;12.52;11.32;;;;;;;;;;10315904;28;20075;-66
2023/08/13 06:35:47;;;;;;;12.52;11.45;;;;;;;;;;10308353;28;20072;-67
2023/08/13 06:40:44;;;;;;;13.27;11.90;;;;;;;;;;10316258;28;20045;-66
2023/08/13 06:45:40;;;;;;;13.13;11.93;;;;;;;;;;10300553;28;20056;-66
2023/08/13 06:50:38;;;;;;;13.07;11.23;;;;;;;;;;10293055;28;20045;-67
2023/08/13 06:55:34;;;;;;;13.35;12.00;;;;;;;;;;10298717;28;20064;-66
2023/08/13 07:00:31;;;;;;;13.68;12.18;;;;;;;;;;10306992;28;20560;-66
2023/08/13 07:05:35;;;;;;;13.10;11.18;;;;;;;;;;10300487;28;20783;-66
2023/08/13 07:10:32;;;;;;;12.80;11.60;;;;;;;;;;10305357;28;20040;-66
2023/08/13 07:15:28;;;;;;;14.25;11.75;;;;;;;;;;10305231;28;20094;-65
2023/08/13 07:20:25;;;;;;;11.70;10.38;;;;;;;;;;10302598;28;20041;-65
2023/08/13 07:25:21;;;;;;;13.60;10.60;;;;;;;;;;10298232;28;20053;-66
2023/08/13 07:30:18;;;;;;;10.82;9.65;;;;;;;;;;10297674;28;20051;-66
2023/08/13 07:35:14;;;;;;;14.10;10.57;;;;;;;;;;10304048;28;20051;-68
2023/08/13 07:40:11;;;;;;;10.30;8.75;;;;;;;;;;10303871;28;20055;-67
2023/08/13 07:45:10;;;;;;;8.82;7.93;;;;;;;;;;10299221;28;20064;-69
2023/08/13 07:50:08;;;;;;;12.23;7.43;;;;;;;;;;10300744;28;20048;-67
2023/08/13 07:55:05;;;;;;;13.25;8.00;;;;;;;;;;10292350;28;20128;-67
2023/08/13 08:00:02;;;;;;;11.25;7.47;;;;;;;;;;10297048;28;20658;-68
2023/08/13 08:04:58;;;;;;;11.48;6.65;;;;;;;;;;10286310;28;20052;-68
2023/08/13 08:09:55;;;;;;;10.57;6.60;;;;;;;;;;10291540;28;20063;-67
2023/08/13 08:14:51;;;;;;;10.55;6.30;;;;;;;;;;10283853;28;20045;-67
2023/08/13 08:19:48;;;;;;;8.50;6.57;;;;;;;;;;10284150;28;20052;-66
2023/08/13 08:24:45;;;;;;;9.48;5.80;;;;;;;;;;10292833;28;20422;-67
2023/08/13 08:29:41;;;;;;;8.07;6.43;;;;;;;;;;10293376;28;20070;-67
2023/08/13 08:34:38;;;;;;;9.02;6.65;;;;;;;;;;10293310;28;20134;-66
2023/08/13 08:39:34;;;;;;;7.45;6.45;;;;;;;;;;10296368;28;20053;-66
2023/08/13 08:44:31;;;;;;;7.22;6.35;;;;;;;;;;10294337;28;20068;-67
2023/08/13 08:49:27;;;;;;;9.50;6.28;;;;;;;;;;10290462;28;20460;-67
2023/08/13 08:54:24;;;;;;;6.43;5.80;;;;;;;;;;10287185;28;20060;-68
2023/08/13 08:59:21;;;;;;;9.25;6.20;;;;;;;;;;10299265;28;20483;-67
2023/08/13 09:04:17;;;;;;;9.18;6.35;;;;;;;;;;10298688;28;20044;-67
2023/08/13 09:09:13;;;;;;;8.73;6.63;;;;;;;;;;10304830;28;20099;-67
2023/08/13 09:14:10;;;;;;;8.43;6.47;;;;;;;;;;10300134;28;20080;-66
2023/08/13 09:19:06;;;;;;;7.68;5.90;;;;;;;;;;10293986;28;20094;-72
2023/08/13 09:24:09;;;;;;;8.05;5.93;;;;;;;;;;10304252;28;20077;-72
2023/08/13 09:34:11;;;;;;;8.75;6.15;;;;;;;;;;8441550;26;20053;-71
2023/08/13 09:39:07;;;;;;;8.13;6.22;;;;;;;;;;10182414;28;20056;-71
2023/08/13 09:44:08;;;;;;;7.78;6.15;;;;;;;;;;10164264;28;20046;-71
2023/08/13 09:49:09;;;;;;;6.43;5.82;;;;;;;;;;10180867;28;20065;-71
2023/08/13 09:54:11;;;;;;;6.57;5.70;;;;;;;;;;10183105;28;20050;-71
2023/08/13 09:59:07;;;;;;;5.97;5.38;;;;;;;;;;10175392;28;20104;-71
2023/08/13 10:04:04;;;;;;;6.85;5.75;;;;;;;;;;10176355;28;20123;-71
2023/08/13 10:09:00;;;;;;;7.10;5.95;;;;;;;;;;10174522;28;20049;-70
2023/08/13 10:13:57;;;;;;;7.43;6.20;;;;;;;;;;10179329;28;20046;-72
2023/08/13 10:18:56;;;;;;;8.68;6.40;;;;;;;;;;10180946;28;21227;-73
2023/08/13 10:23:54;;;;;;;7.15;5.90;;;;;;;;;;10178433;28;20050;-71
2023/08/13 10:28:53;;;;;;;7.03;6.32;;;;;;;;;;10173885;28;20053;-72
2023/08/13 10:34:00;;;;;;;6.93;6.18;;;;;;;;;;10180744;28;20553;-71
2023/08/13 10:39:16;;;;;;;6.28;5.75;;;;;;;;;;10173040;28;20053;-72
2023/08/13 10:44:31;;;;;;;9.00;6.47;;;;;;;;;;10170258;28;20547;-72
2023/08/13 10:49:28;;;;;;;8.15;6.65;;;;;;;;;;10182244;28;20549;-71
2023/08/13 10:54:25;;;;;;;6.93;6.22;;;;;;;;;;10180782;28;20042;-72
2023/08/13 10:59:31;;;;;;;7.55;6.38;;;;;;;;;;10171179;28;20458;-72
2023/08/13 11:04:28;;;;;;;7.30;6.55;;;;;;;;;;10174391;28;20050;-70
2023/08/13 11:09:28;;;;;;;6.57;5.80;;;;;;;;;;10172046;28;20466;-70
2023/08/13 11:14:25;;;;;;;6.70;6.10;;;;;;;;;;10177419;28;20530;-70
2023/08/13 11:19:22;;;;;;;6.32;5.72;;;;;;;;;;10178708;28;20514;-70
2023/08/13 11:24:18;;;;;;;6.95;5.75;;;;;;;;;;10163853;28;20056;-70
2023/08/13 11:29:19;;;;;;;7.45;5.72;;;;;;;;;;10182096;28;20050;-70
2023/08/13 11:34:16;;;;;;;6.25;5.65;;;;;;;;;;10177602;28;20041;-70
2023/08/13 11:39:43;;;;;;;7.95;5.60;;;;;;;;;;10233234;23;20066;-70
2023/08/13 11:44:49;;;;;;;6.45;5.63;;;;;;;;;;10313173;28;20480;-69
2023/08/13 11:49:59;;;;;;;5.95;5.35;;;;;;;;;;10301673;28;20055;-69
2023/08/13 11:54:56;;;;;;;7.53;5.47;;;;;;;;;;10302076;28;20492;-70
2023/08/13 11:59:53;;;;;;;6.85;5.60;;;;;;;;;;10300097;28;20055;-71
2023/08/13 12:04:49;;;;;;;6.95;5.15;;;;;;;;;;10298073;28;20123;-69
2023/08/13 12:15:17;;;;;;;7.07;5.43;;;;;;;;;;2594326;26;20389;-70
2023/08/13 12:20:14;;;;;;;6.82;5.63;;;;;;;;;;10285973;28;20173;-70
2023/08/13 12:25:11;;;;;;;6.05;5.45;;;;;;;;;;10295905;28;20160;-68
2023/08/13 12:30:07;;;;;;;6.35;5.70;;;;;;;;;;10283194;28;20435;-69
2023/08/13 12:35:04;;;;;;;6.60;5.22;;;;;;;;;;10295982;28;20139;-68
2023/08/13 12:40:02;;;;;;;6.22;5.28;;;;;;;;;;10301652;28;20511;-68
2023/08/13 12:45:00;;;;;;;7.32;5.10;;;;;;;;;;10302037;28;20135;-68
2023/08/13 12:49:56;;;;;;;6.38;5.28;;;;;;;;;;10296327;28;20747;-68
2023/08/13 12:54:53;;;;;;;5.78;5.00;;;;;;;;;;10293634;28;20622;-68
2023/08/13 12:59:50;;;;;;;7.65;5.10;;;;;;;;;;10289614;28;20120;-68
2023/08/13 13:04:50;;;;;;;5.55;4.70;;;;;;;;;;10298853;28;20048;-68
2023/08/13 13:09:47;;;;;;;6.43;5.60;;;;;;;;;;10308466;28;20044;-68
2023/08/13 13:14:44;;;;;;;7.00;5.07;;;;;;;;;;10305142;28;20143;-68
2023/08/13 13:19:42;;;;;;;5.45;4.93;;;;;;;;;;10295491;28;20040;-68
2023/08/13 13:24:38;;;;;;;9.70;5.68;;;;;;;;;;10296259;28;20044;-68
2023/08/13 13:29:35;;;;;;;6.38;5.03;;;;;;;;;;10296915;28;20052;-68
2023/08/13 13:34:34;;;;;;;5.70;5.20;;;;;;;;;;10286139;28;20090;-68
2023/08/13 13:39:30;;;;;;;7.53;5.20;;;;;;;;;;10288427;28;20127;-68
2023/08/13 13:44:27;;;;;;;7.25;4.90;;;;;;;;;;10302529;28;20083;-69
2023/08/13 13:49:24;;;;;;;6.13;5.40;;;;;;;;;;10296205;28;20087;-69
2023/08/13 13:54:21;;;;;;;5.75;4.55;;;;;;;;;;10291809;28;20084;-69
2023/08/13 13:59:18;;;;;;;7.15;5.35;;;;;;;;;;10301341;28;20061;-69
2023/08/13 14:04:14;;;;;;;5.45;4.85;;;;;;;;;;10299566;28;20052;-68
2023/08/13 14:09:11;;;;;;;5.80;4.63;;;;;;;;;;10293558;28;20049;-70
2023/08/13 14:14:07;;;;;;;4.95;4.43;;;;;;;;;;10294390;28;20040;-70
2023/08/13 14:19:04;;;;;;;5.25;4.68;;;;;;;;;;10292653;28;20051;-70
2023/08/13 14:24:00;;;;;;;8.20;4.57;;;;;;;;;;10302808;28;20066;-70
2023/08/13 14:28:57;;;;;;;5.53;5.03;;;;;;;;;;10290788;28;20057;-71
2023/08/13 14:33:53;;;;;;;6.13;5.43;;;;;;;;;;10291309;28;20063;-70
2023/08/13 14:38:51;;;;;;;5.30;4.80;;;;;;;;;;10286498;28;20056;-71
2023/08/13 14:43:47;;;;;;;5.32;4.55;;;;;;;;;;10290452;28;20110;-71
2023/08/13 14:48:44;;;;;;;5.57;5.03;;;;;;;;;;10291372;28;20052;-71
2023/08/13 14:53:40;;;;;;;5.60;5.10;;;;;;;;;;10300628;28;20561;-70
2023/08/13 14:58:36;;;;;;;7.18;4.75;;;;;;;;;;10291241;28;20044;-71
2023/08/13 15:03:33;;;;;;;4.90;4.40;;;;;;;;;;10289727;28;20079;-71
2023/08/13 15:08:30;;;;;;;5.97;4.75;;;;;;;;;;10299910;28;20060;-71
2023/08/13 15:13:26;;;;;;;5.70;4.85;;;;;;;;;;10285817;28;20157;-71
2023/08/13 15:28:46;;;;;;;5.40;4.85;;;;;;;;;;8924180;26;20743;-70
2023/08/13 15:33:42;;;;;;;5.05;4.35;;;;;;;;;;10108065;28;20042;-70
2023/08/13 15:38:39;;;;;;;5.03;4.53;;;;;;;;;;10143201;28;20050;-70
2023/08/13 15:43:35;;;;;;;6.25;4.45;;;;;;;;;;10134550;28;20057;-70
2023/08/13 15:48:31;;;;;;;7.15;5.18;;;;;;;;;;10135322;28;20046;-70
2023/08/13 15:53:28;;;;;;;4.88;4.45;;;;;;;;;;10135167;28;20553;-70
2023/08/13 16:08:56;;;;;;;5.32;4.82;;;;;;;;;;10115466;28;20073;-70
2023/08/13 16:13:53;;;;;;;5.10;4.70;;;;;;;;;;10138499;28;20063;-70
2023/08/13 16:24:01;;;;;;;;;;;;;;;;;;10879211;23;20049;-71
2023/08/13 16:29:10;;;;;;;5.00;4.50;;;;;;;;;;10179455;28;20445;-70
2023/08/13 16:34:06;;;;;;;4.90;4.38;;;;;;;;;;10173837;28;20659;-70
2023/08/13 16:44:14;;;;;;;5.57;4.38;;;;;;;;;;10343657;23;20534;-70
2023/08/13 16:49:11;;;;;;;7.63;4.68;;;;;;;;;;10184595;28;20078;-70
2023/08/13 16:54:07;;;;;;;6.68;4.28;;;;;;;;;;10186614;28;20684;-71
2023/08/13 16:59:04;;;;;;;6.35;4.68;;;;;;;;;;10228129;28;20049;-70
2023/08/13 17:04:02;;;;;;;5.47;4.63;;;;;;;;;;10253699;28;20720;-72
2023/08/13 17:08:59;;;;;;;6.22;5.13;;;;;;;;;;10250859;28;20409;-70
2023/08/13 17:13:55;;;;;;;7.80;4.47;;;;;;;;;;10256020;28;20073;-71
2023/08/13 17:24:04;;;;;;;6.40;4.70;;;;;;;;;;9902541;26;20042;-70
2023/08/13 17:29:00;;;;;;;7.28;5.30;;;;;;;;;;10196374;28;20107;-71
2023/08/13 17:33:57;;;;;;;6.53;4.28;;;;;;;;;;10244990;28;20049;-69
2023/08/13 17:38:53;;;;;;;6.10;4.30;;;;;;;;;;10254841;28;20053;-71
2023/08/13 17:43:50;;;;;;;6.07;4.47;;;;;;;;;;10259064;28;20080;-70
2023/08/13 17:48:46;;;;;;;6.70;4.55;;;;;;;;;;10244384;28;20058;-71
2023/08/13 17:53:43;;;;;;;5.90;4.57;;;;;;;;;;10243397;28;20052;-70
2023/08/13 17:58:42;;;;;;;7.10;4.68;;;;;;;;;;10264807;23;20445;-69
2023/08/13 18:03:52;;;;;;;6.53;4.30;;;;;;;;;;10228142;28;20051;-70
2023/08/13 18:08:48;;;;;;;5.43;4.53;;;;;;;;;;10220824;28;20073;-70
2023/08/13 18:14:01;;;;;;;6.70;4.60;;;;;;;;;;10265843;28;20045;-70
2023/08/13 18:18:57;;;;;;;4.95;4.40;;;;;;;;;;10241566;28;20049;-69
2023/08/13 18:23:54;;;;;;;5.70;4.28;;;;;;;;;;10255721;28;20582;-69
2023/08/13 18:28:50;;;;;;;6.18;4.88;;;;;;;;;;10263695;23;20049;-70
2023/08/13 18:33:46;;;;;;;5.13;4.57;;;;;;;;;;10222194;28;20107;-70
2023/08/13 18:38:43;;;;;;;5.53;4.90;;;;;;;;;;10190021;28;20772;-71
2023/08/13 18:43:39;;;;;;;6.85;5.38;;;;;;;;;;10221807;28;20051;-70
2023/08/13 18:48:36;;;;;;;5.65;4.97;;;;;;;;;;10222191;28;20059;-70
2023/08/13 18:53:32;;;;;;;5.85;5.22;;;;;;;;;;10224579;28;20049;-69
2023/08/13 19:03:40;;;;;;;7.97;6.60;;;;;;;;;;10192380;23;20057;-69
2023/08/13 19:08:36;;;;;;;7.53;6.10;;;;;;;;;;10170563;28;20476;-69
2023/08/13 19:13:33;;;;;;;6.65;5.75;;;;;;;;;;10181631;28;20050;-69
2023/08/13 19:18:29;;;;;;;7.50;6.30;;;;;;;;;;10176253;28;20042;-69
2023/08/13 19:23:25;;;;;;;7.93;6.57;;;;;;;;;;10182824;28;20112;-70
2023/08/13 19:28:22;;;;;;;8.27;6.70;;;;;;;;;;10181415;28;20068;-70
2023/08/13 19:33:18;;;;;;;7.57;6.72;;;;;;;;;;10178504;28;20061;-71
2023/08/13 19:43:20;;;;;;;8.57;7.68;;;;;;;;;;9429657;26;20041;-69
2023/08/13 19:48:17;;;;;;;10.02;7.97;;;;;;;;;;10216729;28;20437;-68
2023/08/13 19:53:13;;;;;;;14.23;8.02;;;;;;;;;;10165509;28;20042;-70
2023/08/13 19:58:10;;;;;;;10.18;8.27;;;;;;;;;;10167097;28;20046;-68
2023/08/13 20:03:10;;;;;;;8.85;7.93;;;;;;;;;;10175675;28;20053;-65
2023/08/13 20:08:07;;;;;;;13.18;9.30;;;;;;;;;;10173502;28;20061;-64
2023/08/13 20:13:04;;;;;;;10.90;9.20;;;;;;;;;;10175063;28;20481;-66
2023/08/13 20:18:00;;;;;;;13.88;9.80;;;;;;;;;;10179214;28;20041;-65
2023/08/13 20:22:56;;;;;;;11.60;9.80;;;;;;;;;;10178918;28;20049;-66
2023/08/13 20:27:53;;;;;;;13.07;9.75;;;;;;;;;;10172931;28;20042;-66
2023/08/13 20:32:49;;;;;;;11.50;9.45;;;;;;;;;;10178188;28;20053;-67
2023/08/13 20:37:46;;;;;;;10.73;9.05;;;;;;;;;;10178033;28;20050;-66
2023/08/13 20:42:42;;;;;;;13.27;9.40;;;;;;;;;;10171361;28;20056;-66
2023/08/13 20:47:39;;;;;;;11.73;8.75;;;;;;;;;;10183029;28;20057;-67
2023/08/13 20:52:35;;;;;;;10.32;8.70;;;;;;;;;;10175576;28;20069;-66
2023/08/13 20:57:32;;;;;;;11.40;9.18;;;;;;;;;;10180005;28;20068;-65
2023/08/13 21:02:28;;;;;;;11.00;8.70;;;;;;;;;;10193352;28;20045;-65
2023/08/13 21:07:24;;;;;;;10.60;8.80;;;;;;;;;;10174632;28;20050;-65
2023/08/13 21:12:21;;;;;;;11.15;9.25;;;;;;;;;;10188914;28;20053;-65
2023/08/13 21:17:17;;;;;;;10.52;9.63;;;;;;;;;;10188972;28;20050;-65
2023/08/13 21:22:13;;;;;;;11.02;9.70;;;;;;;;;;10185144;28;20505;-65
2023/08/13 21:27:10;;;;;;;13.27;9.82;;;;;;;;;;10187919;28;20112;-65
2023/08/13 21:32:06;;;;;;;11.82;9.40;;;;;;;;;;10182384;28;20045;-64
2023/08/13 21:37:03;;;;;;;10.60;9.50;;;;;;;;;;10189127;28;20066;-66
2023/08/13 21:41:59;;;;;;;11.13;9.75;;;;;;;;;;10182833;28;20468;-67
2023/08/13 21:46:56;;;;;;;10.15;9.25;;;;;;;;;;10163250;28;20049;-67
2023/08/13 21:51:52;;;;;;;10.82;9.77;;;;;;;;;;10189221;28;20049;-67
2023/08/13 21:56:48;;;;;;;11.57;9.43;;;;;;;;;;10189145;28;20077;-65
2023/08/13 22:01:45;;;;;;;10.75;9.57;;;;;;;;;;10187558;28;20728;-65
2023/08/13 22:06:41;;;;;;;11.05;10.05;;;;;;;;;;10181443;28;20049;-65
2023/08/13 22:11:38;;;;;;;13.23;10.35;;;;;;;;;;10186721;28;20050;-65
2023/08/13 22:16:34;;;;;;;12.93;10.10;;;;;;;;;;10182600;28;20124;-65
2023/08/13 22:21:31;;;;;;;11.52;10.32;;;;;;;;;;10190764;28;20053;-64
2023/08/13 22:26:27;;;;;;;11.93;10.05;;;;;;;;;;10181018;28;20518;-65
2023/08/13 22:31:24;;;;;;;11.05;9.45;;;;;;;;;;10187839;28;20482;-65
2023/08/13 22:36:20;;;;;;;11.43;10.25;;;;;;;;;;10189022;28;20125;-65
2023/08/13 22:41:16;;;;;;;11.98;9.32;;;;;;;;;;10188811;28;20057;-66
2023/08/13 22:46:13;;;;;;;10.52;9.43;;;;;;;;;;10181229;28;20073;-65
2023/08/13 22:51:09;;;;;;;11.43;9.27;;;;;;;;;;10174890;28;20125;-65
2023/08/13 22:56:05;;;;;;;12.63;9.88;;;;;;;;;;10180075;28;20515;-65
2023/08/13 23:01:02;;;;;;;10.93;9.77;;;;;;;;;;10188046;28;20053;-64
2023/08/13 23:05:58;;;;;;;11.45;10.32;;;;;;;;;;10176106;28;20136;-65
2023/08/13 23:10:55;;;;;;;10.73;9.60;;;;;;;;;;10177541;28;20077;-64
2023/08/13 23:15:51;;;;;;;9.75;8.75;;;;;;;;;;10174678;28;20058;-64
2023/08/13 23:20:47;;;;;;;10.70;9.60;;;;;;;;;;10182887;28;20536;-64
2023/08/13 23:25:44;;;;;;;10.85;9.50;;;;;;;;;;10187030;28;20070;-64
2023/08/13 23:30:40;;;;;;;10.20;9.20;;;;;;;;;;10187861;28;20052;-66
2023/08/13 23:35:36;;;;;;;10.13;9.23;;;;;;;;;;10185115;28;20049;-68
2023/08/13 23:40:33;;;;;;;12.15;10.32;;;;;;;;;;10179223;28;20053;-67
2023/08/13 23:45:29;;;;;;;10.63;9.63;;;;;;;;;;10177505;28;20045;-65
2023/08/13 23:50:25;;;;;;;10.13;9.20;;;;;;;;;;10184247;28;20066;-66
2023/08/13 23:55:22;;;;;;;11.60;9.85;;;;;;;;;;10179606;28;20070;-65
